createdAt,value
2023-05-11T00:04:21.907Z,6.60
2023-05-11T00:09:25.454Z,6.60
2023-05-11T00:14:28.296Z,6.93
2023-05-11T00:19:32.082Z,6.30
2023-05-11T00:24:34.940Z,6.10
2023-05-11T00:29:37.873Z,6.28
2023-05-11T00:34:40.766Z,6.50
2023-05-11T00:39:43.553Z,7.20
2023-05-11T00:44:46.492Z,7.03
2023-05-11T00:49:50.712Z,6.80
2023-05-11T00:54:53.601Z,6.57
2023-05-11T00:59:56.603Z,6.90
2023-05-11T01:05:00.492Z,6.85
2023-05-11T01:10:13.362Z,7.35
2023-05-11T01:15:27.032Z,6.95
2023-05-11T01:20:31.159Z,5.75
2023-05-11T01:26:09.874Z,5.38
2023-05-11T01:31:14.337Z,5.40
2023-05-11T01:36:18.791Z,5.32
2023-05-11T01:41:25.185Z,4.60
2023-05-11T01:46:31.598Z,4.63
2023-05-11T01:51:38.199Z,4.60
2023-05-11T01:56:42.298Z,4.53
2023-05-11T02:01:45.432Z,4.40
2023-05-11T02:06:50.180Z,4.55
2023-05-11T02:11:54.307Z,4.90
2023-05-11T02:16:58.156Z,5.43
2023-05-11T02:22:01.828Z,5.10
2023-05-11T02:27:05.299Z,5.70
2023-05-11T02:32:10.605Z,6.18
2023-05-11T02:42:22.844Z,5.00
2023-05-11T02:47:32.831Z,4.50
2023-05-11T02:52:37.044Z,5.43
2023-05-11T02:57:39.983Z,4.65
2023-05-11T03:02:45.103Z,4.60
2023-05-11T03:07:48.412Z,4.82
2023-05-11T03:12:51.426Z,4.38
2023-05-11T03:17:56.516Z,4.53
2023-05-11T03:23:01.161Z,4.40
2023-05-11T03:28:05.239Z,4.97
2023-05-11T03:33:10.300Z,4.35
2023-05-11T03:38:13.662Z,4.00
2023-05-11T03:43:18.740Z,4.25
2023-05-11T03:48:24.051Z,4.15
2023-05-11T03:53:27.741Z,4.95
2023-05-11T03:58:31.479Z,5.20
2023-05-11T04:03:34.699Z,4.90
2023-05-11T04:08:37.685Z,4.50
2023-05-11T04:13:40.676Z,6.05
2023-05-11T04:18:43.544Z,6.40
2023-05-11T04:23:46.500Z,5.90
2023-05-11T04:28:49.804Z,5.53
2023-05-11T04:33:52.920Z,5.18
2023-05-11T04:38:56.161Z,6.38
2023-05-11T04:43:59.950Z,5.88
2023-05-11T04:49:03.306Z,6.35
2023-05-11T04:54:07.214Z,6.13
2023-05-11T04:59:10.874Z,6.05
2023-05-11T05:04:14.367Z,6.65
2023-05-11T05:09:17.632Z,6.38
2023-05-11T05:14:20.668Z,6.97
2023-05-11T05:19:23.603Z,8.10
2023-05-11T05:24:27.386Z,9.75
2023-05-11T05:29:30.777Z,9.23
2023-05-11T05:34:34.201Z,11.93
2023-05-11T05:39:37.447Z,9.75
2023-05-11T05:44:40.421Z,9.15
2023-05-11T05:49:43.386Z,10.38
2023-05-11T05:54:46.391Z,10.15
2023-05-11T05:59:49.630Z,10.85
2023-05-11T06:04:55.107Z,12.73
2023-05-11T06:09:58.082Z,13.48
2023-05-11T06:15:01.343Z,15.93
2023-05-11T06:20:07.932Z,17.98
2023-05-11T06:25:11.969Z,19.38
2023-05-11T06:30:16.514Z,19.20
2023-05-11T06:35:23.223Z,19.08
2023-05-11T06:40:27.257Z,20.63
2023-05-11T06:45:30.391Z,19.20
2023-05-11T06:50:33.576Z,19.52
2023-05-11T06:55:36.636Z,20.08
2023-05-11T07:00:39.880Z,19.48
2023-05-11T07:05:42.921Z,20.45
2023-05-11T07:10:45.813Z,19.83
2023-05-11T07:15:50.149Z,19.10
2023-05-11T07:20:52.964Z,18.70
2023-05-11T07:25:57.917Z,17.65
2023-05-11T07:31:00.859Z,17.70
2023-05-11T07:36:03.974Z,19.90
2023-05-11T07:41:07.880Z,19.00
2023-05-11T07:46:11.757Z,18.30
2023-05-11T07:51:15.062Z,18.30
2023-05-11T07:56:17.919Z,17.33
2023-05-11T08:01:21.166Z,18.10
2023-05-11T08:06:24.359Z,17.25
2023-05-11T08:11:28.094Z,17.42
2023-05-11T08:16:31.045Z,16.30
2023-05-11T08:21:33.829Z,17.02
2023-05-11T08:26:37.040Z,16.92
2023-05-11T08:31:40.746Z,18.10
2023-05-11T08:36:43.706Z,17.52
2023-05-11T08:41:47.214Z,18.23
2023-05-11T08:47:05.803Z,17.65
2023-05-11T08:52:17.009Z,18.15
2023-05-11T08:57:20.160Z,20.20
2023-05-11T09:02:24.636Z,19.83
2023-05-11T09:07:27.753Z,19.48
2023-05-11T09:12:31.451Z,20.20
2023-05-11T09:17:34.351Z,19.05
2023-05-11T09:22:47.515Z,18.23
2023-05-11T09:27:50.401Z,18.90
2023-05-11T09:32:55.831Z,17.55
2023-05-11T09:43:29.770Z,16.00
2023-05-11T09:48:33.081Z,15.80
2023-05-11T09:53:37.486Z,15.70
2023-05-11T09:58:58.239Z,15.73
2023-05-11T10:04:21.237Z,16.20
2023-05-11T10:09:26.741Z,17.23
2023-05-11T10:14:30.273Z,15.23
2023-05-11T10:19:33.901Z,15.32
2023-05-11T10:24:37.482Z,16.10
2023-05-11T10:29:40.851Z,15.95
2023-05-11T10:34:44.806Z,15.20
2023-05-11T10:39:50.120Z,14.70
2023-05-11T10:45:27.217Z,15.60
2023-05-11T10:51:01.675Z,15.35
2023-05-11T10:56:18.726Z,15.47
2023-05-11T11:01:24.602Z,15.63
2023-05-11T11:06:28.956Z,16.88
2023-05-11T11:11:34.221Z,16.52
2023-05-11T11:16:38.065Z,17.02
2023-05-11T11:21:42.851Z,16.35
2023-05-11T11:26:50.880Z,14.93
2023-05-11T11:31:53.851Z,14.68
2023-05-11T11:36:56.585Z,14.50
2023-05-11T11:42:04.186Z,14.32
2023-05-11T11:47:17.118Z,15.40
2023-05-11T11:52:29.311Z,15.63
2023-05-11T11:57:35.079Z,15.77
2023-05-11T12:02:45.916Z,14.50
2023-05-11T12:07:51.004Z,14.68
2023-05-11T12:12:59.868Z,14.67
2023-05-11T12:18:03.732Z,15.27
2023-05-11T12:23:06.594Z,15.88
2023-05-11T12:28:10.361Z,15.55
2023-05-11T12:33:15.558Z,15.32
2023-05-11T12:38:18.910Z,15.40
2023-05-11T12:43:23.049Z,14.02
2023-05-11T12:48:27.475Z,14.48
2023-05-11T12:53:36.768Z,14.85
2023-05-11T12:58:40.913Z,15.52
2023-05-11T13:03:48.432Z,14.68
2023-05-11T13:08:52.135Z,16.08
2023-05-11T13:13:56.569Z,15.30
2023-05-11T13:19:04.534Z,15.30
2023-05-11T13:24:07.787Z,15.88
2023-05-11T13:29:11.545Z,15.75
2023-05-11T13:34:17.277Z,14.90
2023-05-11T13:39:20.136Z,15.25
2023-05-11T13:44:23.079Z,15.23
2023-05-11T13:49:26.120Z,18.25
2023-05-11T13:54:30.186Z,19.42
2023-05-11T13:59:33.019Z,19.80
2023-05-11T14:04:36.016Z,16.85
2023-05-11T14:09:39.124Z,16.85
2023-05-11T14:14:42.106Z,18.67
2023-05-11T14:19:45.740Z,17.80
2023-05-11T14:24:48.706Z,20.00
2023-05-11T14:29:52.481Z,21.13
2023-05-11T14:34:55.320Z,18.65
2023-05-11T14:39:58.305Z,17.70
2023-05-11T14:45:01.201Z,17.83
2023-05-11T14:50:08.766Z,21.13
2023-05-11T14:55:11.815Z,20.80
2023-05-11T15:00:15.233Z,21.25
2023-05-11T15:05:18.513Z,20.15
2023-05-11T15:10:21.819Z,19.95
2023-05-11T15:15:24.883Z,22.77
2023-05-11T15:20:28.085Z,24.58
2023-05-11T15:25:30.853Z,25.98
2023-05-11T15:30:33.766Z,30.15
2023-05-11T15:35:37.274Z,36.15
2023-05-11T15:40:40.179Z,40.45
2023-05-11T15:45:43.254Z,38.00
2023-05-11T15:50:46.277Z,40.35
2023-05-11T15:55:51.631Z,37.13
2023-05-11T16:00:55.367Z,38.45
2023-05-11T16:05:59.699Z,42.03
2023-05-11T16:11:02.640Z,44.08
2023-05-11T16:16:05.813Z,43.78
2023-05-11T16:21:09.144Z,45.75
2023-05-11T16:26:12.057Z,45.78
2023-05-11T16:31:15.927Z,44.50
2023-05-11T16:36:18.917Z,49.28
2023-05-11T16:41:21.822Z,53.70
2023-05-11T16:46:24.865Z,51.65
2023-05-11T16:51:27.807Z,51.33
2023-05-11T16:56:30.727Z,54.50
2023-05-11T17:01:34.526Z,51.58
2023-05-11T17:06:37.289Z,52.47
2023-05-11T17:11:40.316Z,50.22
2023-05-11T17:16:43.450Z,48.20
2023-05-11T17:21:46.394Z,49.28
2023-05-11T17:26:49.363Z,50.63
2023-05-11T17:31:52.748Z,49.72
2023-05-11T17:36:56.234Z,50.53
2023-05-11T17:41:59.138Z,51.30
2023-05-11T17:47:02.665Z,52.53
2023-05-11T17:52:06.268Z,50.72
2023-05-11T17:57:09.244Z,48.28
2023-05-11T18:02:12.774Z,44.60
2023-05-11T18:07:15.644Z,39.40
2023-05-11T18:12:18.522Z,36.35
2023-05-11T18:17:22.319Z,34.47
2023-05-11T18:22:25.628Z,34.58
2023-05-11T18:27:28.932Z,34.95
2023-05-11T18:32:31.957Z,33.38
2023-05-11T18:37:36.317Z,33.78
2023-05-11T18:42:39.916Z,33.20
2023-05-11T18:47:44.872Z,31.70
2023-05-11T18:52:48.007Z,35.13
2023-05-11T18:57:50.925Z,34.83
2023-05-11T19:02:55.218Z,31.90
2023-05-11T19:07:58.167Z,32.00
2023-05-11T19:13:01.035Z,33.17
2023-05-11T19:18:04.037Z,31.63
2023-05-11T19:23:07.215Z,34.85
2023-05-11T19:28:10.536Z,35.35
2023-05-11T19:33:13.868Z,36.58
2023-05-11T19:38:16.827Z,36.42
2023-05-11T19:43:19.698Z,34.88
2023-05-11T19:48:23.012Z,33.95
2023-05-11T19:53:27.552Z,32.03
2023-05-11T19:58:33.549Z,33.40
2023-05-11T20:03:36.596Z,34.42
2023-05-11T20:08:39.591Z,34.85
2023-05-11T20:13:44.416Z,32.55
2023-05-11T20:18:47.564Z,33.03
2023-05-11T20:23:50.933Z,32.88
2023-05-11T20:28:54.271Z,33.60
2023-05-11T20:39:02.968Z,34.30
2023-05-11T20:44:05.821Z,33.95
2023-05-11T20:49:09.698Z,33.75
2023-05-11T20:54:12.927Z,35.35
2023-05-11T21:04:21.871Z,37.28
2023-05-11T21:09:25.746Z,34.05
2023-05-11T21:14:28.590Z,34.28
2023-05-11T21:19:31.461Z,33.72
2023-05-11T21:24:37.985Z,32.95
2023-05-11T21:29:41.705Z,34.03
2023-05-11T21:34:44.652Z,32.38
2023-05-11T21:39:50.847Z,33.47
2023-05-11T21:44:53.714Z,32.83
2023-05-11T21:49:58.418Z,31.95
2023-05-11T21:55:01.367Z,33.42
2023-05-11T22:00:04.896Z,32.20
2023-05-11T22:05:11.594Z,31.63
2023-05-11T22:10:14.453Z,32.37
2023-05-11T22:15:17.419Z,31.80
2023-05-11T22:20:20.639Z,31.20
2023-05-11T22:25:23.836Z,32.10
2023-05-11T22:30:26.637Z,31.75
2023-05-11T22:35:30.234Z,32.42
2023-05-11T22:40:33.214Z,34.58
2023-05-11T22:45:36.115Z,34.70
2023-05-11T22:50:47.963Z,33.25
2023-05-11T22:55:50.822Z,33.70
2023-05-11T23:00:56.163Z,33.03
2023-05-11T23:05:59.005Z,32.90
2023-05-11T23:11:02.348Z,32.58
2023-05-11T23:16:05.491Z,31.58
2023-05-11T23:21:08.723Z,30.35
2023-05-11T23:26:11.834Z,27.23
2023-05-11T23:31:14.688Z,27.27
2023-05-11T23:36:17.557Z,24.95
2023-05-11T23:41:20.866Z,23.63
2023-05-11T23:46:23.806Z,21.98
2023-05-11T23:51:26.759Z,20.05
2023-05-11T23:56:29.575Z,21.52
